Rice Lake, WI

3:49 AM CDT on October 24, 2014 (GMT -0500)
Shell Lake | Change Station
CLOSE
Current Station
Personal Weather Station
Location: Shell Lake, WI
Elevation: 1230 ft
Nearby Weather Stations
Active Advisory: Dense Fog Advisory

Elev 1230 ft 45.72 °N, 91.89 °W | Updated 31 seconds ago

Fog
Fog
49.1 °F
Feels Like 49 °F
N
0.0
Wind Variable Wind from North
Gusts 0.0 mph

Today
High -- | Low -- °F
--% Chance of Precip.
Yesterday
High -- | Low -- °F
Precip. -- in
7:35 AM 6:06 PM
New Moon, 0% visible
Pressure 29.98 in
Visibility 2.5 miles
Clouds Overcast 200 ft
Windchill 49 °F
Dew Point 48 °F
Humidity 95%
Rainfall 0.00 in
Snow Depth Not available.
UV 0 out of 12
Pollen .10 out of 12
Air Quality Not available.
Flu Activity Sporadic
METAR KUBE 240835Z AUTO 17004KT 2 1/2SM BR OVC002 08/08 A2998 RMK AO2

More Conditions Fewer Conditions

Pressure 29.98 in
Visibility 2.5 miles
Clouds Overcast 200 ft
Windchill 49 °F
Dew Point 48 °F
Humidity 95%
Rainfall 0.00 in
Snow Depth Not available.
UV 0 out of 12
Pollen .10 out of 12
Air Quality Not available.
Flu Activity Sporadic
METAR KUBE 240835Z AUTO 17004KT 2 1/2SM BR OVC002 08/08 A2998 RMK AO2

More Conditions Fewer Conditions

10-Day Weather Forecast

Almanac

Astronomy

Oct. 24, 2014 Rise Set
Actual Time 7:35 AM CDT 6:06 PM CDT
Civil Twilight 7:05 AM CDT 6:36 PM CDT
Nautical Twilight 6:30 AM CDT 7:11 PM CDT
Astronomical Twilight 5:56 AM CDT 7:45 PM CDT
Moon 8:16 AM CDT 6:44 PM CDT
Length of Visible Light 11h 31m
Length of Day
10h 30m
Tomorrow will be 3m 0s shorter.
New Moon, 0% of the Moon is Illuminated
Today
New Moon
Oct 30
First Quarter
Nov 6
Full
Nov 14
Last Quarter
Nov 22
New

Today's Extremes

State Highs State Lows

Community

WunderPhotos

Upload Photos

1,764,511 photos uploaded!

WunderBlogs® & News

Nearby

Snow Depth

Station Depth Elevation
No new snow has been reported.

Earthquake Activity

City Distance Mag. Time & Date
No recent earthquake activity has been reported nearby.
Minimum magnitude displayed is 2.5.

Coastal Water Temperatures

Place Temperature
No Stations Reporting

Nearby Weather Stations